»·PEaware :: ASA2080 KSEA-KSFO

ASA2080 :: KSEA-KSFO

FLIGHT INFORMATION

Flight Status: Arrived
Operator:
Alaska Airlines
More flights by this operator :: More flights under this callsign
Pilot: Will K. (13011)
Aircraft: AIRBUS A320
(A320)
More flights by this aircraft type
Origin: KSEA Seattle-Tacoma Intl
United States
Destination: KSFO San Francisco Intl
United States
More flights between these airports :: More routes between these airports
Route: +HAROB6 FEPOT Q3 FOWND MLBEC BDEGA3
File this flight plan on PilotEdge
Remarks:
Altitude:
(Current/Filed)
35,000ft
Speed:
(Current/Filed)
475kts
Departed: 28-Sep-18 04:00 PM
Arrived: 28-Sep-18 05:49 PM
Distance/Time
Traveled:
590nm/1:49
Distance/Time
To Go:
Arrived

Flight Plot

Page will automatically refresh every two minutes.

Flight plan parsing failed; only flown route is shown


Map Options




Map Legend


Flown Route
Filed Route
Departure Airport
Arrival Airport
Navaid (VOR, NDB)
Fix

Horizontal Profiles

Position Reports

Time Latitude Longitude Heading Altitude Ground
Speed
28-Sep-18 15:28 47.438411 -122.300926 311 436ft 0kts
28-Sep-18 15:29 47.438411 -122.300926 311 436ft 0kts
28-Sep-18 15:30 47.438411 -122.300926 311 436ft 0kts
28-Sep-18 15:31 47.438411 -122.300926 311 436ft 0kts
28-Sep-18 15:32 47.438411 -122.300926 311 436ft 0kts
28-Sep-18 15:33 47.438411 -122.300926 311 436ft 0kts
28-Sep-18 15:34 47.438411 -122.300926 311 436ft 0kts
28-Sep-18 15:35 47.438411 -122.300926 311 436ft 0kts
28-Sep-18 15:36 47.438411 -122.300926 311 436ft 0kts
28-Sep-18 15:37 47.438411 -122.300926 311 436ft 0kts
28-Sep-18 15:38 47.438411 -122.300926 311 436ft 0kts
28-Sep-18 15:39 47.438411 -122.300926 311 436ft 0kts
28-Sep-18 15:40 47.438411 -122.300926 311 436ft 0kts
28-Sep-18 15:41 47.438411 -122.300926 311 436ft 0kts
28-Sep-18 15:42 47.438411 -122.300926 311 436ft 0kts
28-Sep-18 15:43 47.438411 -122.300926 311 436ft 0kts
28-Sep-18 15:44 47.438411 -122.300925 311 436ft 0kts
28-Sep-18 15:45 47.437956 -122.300428 324 436ft 2kts
28-Sep-18 15:46 47.437770 -122.300105 249 436ft 1kts
28-Sep-18 15:47 47.437773 -122.300093 250 436ft 0kts
28-Sep-18 15:48 47.437773 -122.300093 250 436ft 0kts
28-Sep-18 15:49 47.437773 -122.300093 250 436ft 0kts
28-Sep-18 15:50 47.437773 -122.300093 250 436ft 0kts
28-Sep-18 15:51 47.437773 -122.300093 250 436ft 0kts
28-Sep-18 15:52 47.437773 -122.300093 250 436ft 0kts
28-Sep-18 15:53 47.437772 -122.300096 250 436ft 0kts
28-Sep-18 15:54 47.437768 -122.300113 250 436ft 0kts
28-Sep-18 15:55 47.437381 -122.302363 256 436ft 10kts
28-Sep-18 15:56 47.437222 -122.305109 270 436ft 3kts
28-Sep-18 15:57 47.437618 -122.306403 348 436ft 5kts
28-Sep-18 15:58 47.438064 -122.309681 270 436ft 0kts
28-Sep-18 15:59 47.438064 -122.309681 270 436ft 0kts
28-Sep-18 16:00 47.438064 -122.309681 270 436ft 0kts
28-Sep-18 16:01 47.438064 -122.309682 270 436ft 0kts
28-Sep-18 16:02 47.441318 -122.311217 0 436ft 85kts
28-Sep-18 16:03 47.489447 -122.310299 359 2721ft 204kts
28-Sep-18 16:04 47.556206 -122.313115 339 5195ft 272kts
28-Sep-18 16:05 47.610965 -122.387308 282 8746ft 285kts
28-Sep-18 16:06 47.598915 -122.503149 227 11156ft 336kts
28-Sep-18 16:07 47.530060 -122.606853 227 13643ft 363kts
28-Sep-18 16:08 47.458887 -122.714906 226 16179ft 376kts
28-Sep-18 16:09 47.384692 -122.827133 226 18452ft 388kts
28-Sep-18 16:10 47.307338 -122.941584 222 20374ft 404kts
28-Sep-18 16:11 47.219156 -123.048804 221 22077ft 419kts
28-Sep-18 16:12 47.128671 -123.160177 220 23713ft 431kts
28-Sep-18 16:13 47.017737 -123.217564 179 25186ft 444kts
28-Sep-18 16:14 46.895012 -123.212741 180 26722ft 448kts
28-Sep-18 16:15 46.772372 -123.208576 181 28042ft 454kts
28-Sep-18 16:16 46.645353 -123.204362 181 29168ft 462kts
28-Sep-18 16:17 46.516251 -123.200083 181 30280ft 466kts
28-Sep-18 16:18 46.387623 -123.195810 181 31665ft 463kts
28-Sep-18 16:19 46.259644 -123.191612 181 32903ft 460kts
28-Sep-18 16:20 46.132153 -123.187455 181 34041ft 458kts
28-Sep-18 16:21 46.005764 -123.183354 181 34831ft 455kts
28-Sep-18 16:22 45.881062 -123.179326 181 34836ft 455kts
28-Sep-18 16:23 45.754603 -123.175261 181 34824ft 455kts
28-Sep-18 16:24 45.628129 -123.171206 181 34830ft 455kts
28-Sep-18 16:25 45.502161 -123.167187 181 34831ft 455kts
28-Sep-18 16:26 45.388756 -123.163585 181 34828ft 455kts
28-Sep-18 16:27 45.262389 -123.159587 181 34822ft 455kts
28-Sep-18 16:28 45.136027 -123.155608 181 34824ft 455kts
28-Sep-18 16:29 45.010018 -123.151648 180 34867ft 451kts
28-Sep-18 16:30 44.887149 -123.147798 180 34856ft 444kts
28-Sep-18 16:31 44.764386 -123.143991 180 34791ft 441kts
28-Sep-18 16:32 44.642374 -123.140225 180 34780ft 440kts
28-Sep-18 16:33 44.519990 -123.136460 180 34799ft 441kts
28-Sep-18 16:34 44.397605 -123.132190 180 34828ft 442kts
28-Sep-18 16:35 44.275207 -123.127806 180 34848ft 443kts
28-Sep-18 16:36 44.152438 -123.123439 180 34854ft 443kts
28-Sep-18 16:37 44.029838 -123.119094 180 34852ft 443kts
28-Sep-18 16:38 43.906677 -123.114750 180 34847ft 443kts
28-Sep-18 16:39 43.784907 -123.110473 180 34845ft 443kts
28-Sep-18 16:40 43.662321 -123.106184 180 34844ft 443kts
28-Sep-18 16:41 43.539144 -123.101893 180 34834ft 443kts
28-Sep-18 16:42 43.416545 -123.097638 180 34831ft 443kts
28-Sep-18 16:43 43.293617 -123.093391 180 34830ft 443kts
28-Sep-18 16:44 43.170708 -123.089160 180 34831ft 443kts
28-Sep-18 16:45 43.048251 -123.084963 180 34831ft 443kts
28-Sep-18 16:46 42.925824 -123.080770 179 34884ft 436kts
28-Sep-18 16:47 42.807981 -123.076739 179 34890ft 423kts
28-Sep-18 16:48 42.691625 -123.072810 179 34805ft 417kts
28-Sep-18 16:49 42.575992 -123.068921 179 34799ft 416kts
28-Sep-18 16:50 42.460801 -123.065069 179 34800ft 416kts
28-Sep-18 16:51 42.345111 -123.061331 179 34828ft 418kts
28-Sep-18 16:52 42.229009 -123.057583 179 34859ft 419kts
28-Sep-18 16:53 42.112766 -123.053840 179 34869ft 420kts
28-Sep-18 16:54 41.996044 -123.050094 179 34877ft 420kts
28-Sep-18 16:55 41.880926 -123.046418 179 34894ft 421kts
28-Sep-18 16:56 41.764033 -123.042699 179 34926ft 421kts
28-Sep-18 16:57 41.647138 -123.038990 179 34925ft 421kts
28-Sep-18 16:58 41.530564 -123.035304 179 34916ft 421kts
28-Sep-18 16:59 41.413917 -123.031631 179 34907ft 420kts
28-Sep-18 17:00 41.297158 -123.027998 179 34906ft 420kts
28-Sep-18 17:01 41.180611 -123.024474 179 34908ft 420kts
28-Sep-18 17:02 41.064094 -123.020955 179 34903ft 419kts
28-Sep-18 17:03 40.968296 -123.018052 180 34887ft 409kts
28-Sep-18 17:04 40.840002 -123.014194 180 34833ft 398kts
28-Sep-18 17:05 40.730117 -123.010927 180 34781ft 395kts
28-Sep-18 17:06 40.639097 -123.008226 180 34781ft 395kts
28-Sep-18 17:07 40.529095 -123.004966 180 34792ft 396kts
28-Sep-18 17:08 40.400542 -123.001163 180 34828ft 398kts
28-Sep-18 17:09 40.308333 -122.998441 180 34843ft 399kts
28-Sep-18 17:10 40.197829 -122.995191 180 34854ft 399kts
28-Sep-18 17:11 40.086949 -122.991941 180 34860ft 400kts
28-Sep-18 17:12 39.975994 -122.988708 180 34867ft 400kts
28-Sep-18 17:13 39.866240 -122.985512 180 34863ft 401kts
28-Sep-18 17:14 39.755079 -122.982285 180 34880ft 401kts
28-Sep-18 17:15 39.643759 -122.979059 180 34889ft 401kts
28-Sep-18 17:16 39.532323 -122.975841 180 34877ft 401kts
28-Sep-18 17:17 39.421049 -122.972640 180 34870ft 401kts
28-Sep-18 17:18 39.310152 -122.969461 181 34872ft 401kts
28-Sep-18 17:19 39.199853 -122.966294 181 34894ft 395kts
28-Sep-18 17:20 39.090585 -122.963188 181 34837ft 391kts
28-Sep-18 17:21 38.982342 -122.961094 182 34485ft 389kts
28-Sep-18 17:22 38.881002 -122.958159 178 32788ft 385kts
28-Sep-18 17:23 38.776805 -122.929931 171 30303ft 390kts
28-Sep-18 17:24 38.672506 -122.899058 170 28116ft 380kts
28-Sep-18 17:25 38.572062 -122.869397 170 26916ft 355kts
28-Sep-18 17:26 38.478907 -122.841968 170 25442ft 340kts
28-Sep-18 17:27 38.388310 -122.815404 169 23771ft 341kts
28-Sep-18 17:28 38.294419 -122.787943 169 21744ft 346kts
28-Sep-18 17:29 38.202411 -122.761033 168 19648ft 337kts
28-Sep-18 17:30 38.112193 -122.734807 168 18109ft 329kts
28-Sep-18 17:31 38.024031 -122.709242 167 16007ft 323kts
28-Sep-18 17:32 37.937603 -122.684241 167 13964ft 316kts
28-Sep-18 17:33 37.862883 -122.634586 141 12320ft 302kts
28-Sep-18 17:34 37.802417 -122.570260 142 11300ft 276kts
28-Sep-18 17:35 37.743336 -122.507820 142 11036ft 278kts
28-Sep-18 17:36 37.684346 -122.445157 142 11024ft 277kts
28-Sep-18 17:37 37.625536 -122.382690 142 11015ft 276kts
28-Sep-18 17:38 37.562103 -122.333806 154 9662ft 271kts
28-Sep-18 17:39 37.496020 -122.288450 154 8060ft 273kts
28-Sep-18 17:40 37.441746 -122.223811 114 6364ft 289kts
28-Sep-18 17:41 37.411118 -122.137216 114 6033ft 245kts
28-Sep-18 17:42 37.401387 -122.059299 46 6026ft 237kts
28-Sep-18 17:43 37.457406 -122.050873 326 5458ft 203kts
28-Sep-18 17:44 37.498273 -122.090664 305 4537ft 178kts
28-Sep-18 17:45 37.520686 -122.141333 297 3531ft 156kts
28-Sep-18 17:46 37.540834 -122.190051 297 3129ft 158kts
28-Sep-18 17:47 37.559592 -122.234604 298 2214ft 141kts
28-Sep-18 17:48 37.577997 -122.277982 295 1435ft 139kts
28-Sep-18 17:49 37.596079 -122.321116 294 696ft 139kts
28-Sep-18 17:50 37.613334 -122.362237 296 12ft 124kts
28-Sep-18 17:51 37.618949 -122.377703 268 28ft 18kts
28-Sep-18 17:52 37.619190 -122.382234 210 32ft 12kts

Navigation Log

Ident Type
Flight plan parsing failed, navigation log unavailable